sensor_id;sensor_type;location;lat;lon;timestamp;temperature;humidity
11152;DHT22;5630;49.342;10.802;2023-04-01T00:00:53;8.50;99.90
11152;DHT22;5630;49.342;10.802;2023-04-01T00:03:20;8.50;99.90
11152;DHT22;5630;49.342;10.802;2023-04-01T00:05:46;8.50;99.90
11152;DHT22;5630;49.342;10.802;2023-04-01T00:08:11;8.50;99.90
11152;DHT22;5630;49.342;10.802;2023-04-01T00:10:37;8.50;99.90
11152;DHT22;5630;49.342;10.802;2023-04-01T00:13:03;8.50;99.90
11152;DHT22;5630;49.342;10.802;2023-04-01T00:15:29;8.40;99.90
11152;DHT22;5630;49.342;10.802;2023-04-01T00:17:55;8.40;99.90
11152;DHT22;5630;49.342;10.802;2023-04-01T00:20:21;8.40;99.90
11152;DHT22;5630;49.342;10.802;2023-04-01T00:22:47;8.50;99.90
11152;DHT22;5630;49.342;10.802;2023-04-01T00:25:14;8.50;99.90
11152;DHT22;5630;49.342;10.802;2023-04-01T00:27:40;8.40;99.90
11152;DHT22;5630;49.342;10.802;2023-04-01T00:30:06;8.40;99.90
11152;DHT22;5630;49.342;10.802;2023-04-01T00:32:33;8.40;99.90
11152;DHT22;5630;49.342;10.802;2023-04-01T00:34:58;8.40;99.90
11152;DHT22;5630;49.342;10.802;2023-04-01T00:37:25;8.40;99.90
11152;DHT22;5630;49.342;10.802;2023-04-01T00:39:51;8.40;99.90
11152;DHT22;5630;49.342;10.802;2023-04-01T00:42:17;8.40;99.90
11152;DHT22;5630;49.342;10.802;2023-04-01T00:44:46;8.40;99.90
11152;DHT22;5630;49.342;10.802;2023-04-01T00:47:13;8.30;99.90
11152;DHT22;5630;49.342;10.802;2023-04-01T00:49:59;8.40;99.90
11152;DHT22;5630;49.342;10.802;2023-04-01T00:52:25;8.30;99.90
11152;DHT22;5630;49.342;10.802;2023-04-01T00:54:56;8.30;99.90
11152;DHT22;5630;49.342;10.802;2023-04-01T00:57:34;8.40;99.90
11152;DHT22;5630;49.342;10.802;2023-04-01T01:00:03;8.30;99.90
11152;DHT22;5630;49.342;10.802;2023-04-01T01:02:29;8.40;99.90
11152;DHT22;5630;49.342;10.802;2023-04-01T01:04:57;8.40;99.90
11152;DHT22;5630;49.342;10.802;2023-04-01T01:08:42;8.40;99.90
11152;DHT22;5630;49.342;10.802;2023-04-01T01:10:34;8.40;99.90
11152;DHT22;5630;49.342;10.802;2023-04-01T01:13:10;8.40;99.90
11152;DHT22;5630;49.342;10.802;2023-04-01T01:26:52;8.30;99.90
11152;DHT22;5630;49.342;10.802;2023-04-01T01:29:51;8.40;99.90
11152;DHT22;5630;49.342;10.802;2023-04-01T01:32:54;8.40;99.90
11152;DHT22;5630;49.342;10.802;2023-04-01T01:38:00;8.40;99.90
11152;DHT22;5630;49.342;10.802;2023-04-01T01:40:29;8.40;99.90
11152;DHT22;5630;49.342;10.802;2023-04-01T01:42:59;8.40;99.90
11152;DHT22;5630;49.342;10.802;2023-04-01T01:45:26;8.40;99.90
11152;DHT22;5630;49.342;10.802;2023-04-01T01:47:55;8.40;99.90
11152;DHT22;5630;49.342;10.802;2023-04-01T01:50:22;8.30;99.90
11152;DHT22;5630;49.342;10.802;2023-04-01T01:52:47;8.30;99.90
11152;DHT22;5630;49.342;10.802;2023-04-01T01:55:28;8.30;99.90
11152;DHT22;5630;49.342;10.802;2023-04-01T01:57:57;8.30;99.90
11152;DHT22;5630;49.342;10.802;2023-04-01T02:00:24;8.30;99.90
11152;DHT22;5630;49.342;10.802;2023-04-01T02:02:50;8.30;99.90
11152;DHT22;5630;49.342;10.802;2023-04-01T02:05:21;8.30;99.90
11152;DHT22;5630;49.342;10.802;2023-04-01T02:07:55;8.30;99.90
11152;DHT22;5630;49.342;10.802;2023-04-01T02:10:25;8.30;99.90
11152;DHT22;5630;49.342;10.802;2023-04-01T02:12:53;8.30;99.90
11152;DHT22;5630;49.342;10.802;2023-04-01T02:15:25;8.30;99.90
11152;DHT22;5630;49.342;10.802;2023-04-01T02:17:55;8.30;99.90
11152;DHT22;5630;49.342;10.802;2023-04-01T02:20:23;8.30;99.90
11152;DHT22;5630;49.342;10.802;2023-04-01T02:22:54;8.30;99.90
11152;DHT22;5630;49.342;10.802;2023-04-01T02:25:25;8.30;99.90
11152;DHT22;5630;49.342;10.802;2023-04-01T02:27:52;8.30;99.90
11152;DHT22;5630;49.342;10.802;2023-04-01T02:30:21;8.30;99.90
11152;DHT22;5630;49.342;10.802;2023-04-01T02:32:47;8.30;99.90
11152;DHT22;5630;49.342;10.802;2023-04-01T02:35:15;8.30;99.90
11152;DHT22;5630;49.342;10.802;2023-04-01T02:37:41;8.20;99.90
11152;DHT22;5630;49.342;10.802;2023-04-01T02:40:10;8.30;99.90
11152;DHT22;5630;49.342;10.802;2023-04-01T02:42:36;8.30;99.90
11152;DHT22;5630;49.342;10.802;2023-04-01T02:45:03;8.20;99.90
11152;DHT22;5630;49.342;10.802;2023-04-01T02:47:29;8.20;99.90
11152;DHT22;5630;49.342;10.802;2023-04-01T02:49:55;8.20;99.90
11152;DHT22;5630;49.342;10.802;2023-04-01T02:52:28;8.20;99.90
11152;DHT22;5630;49.342;10.802;2023-04-01T02:54:54;8.20;99.90
11152;DHT22;5630;49.342;10.802;2023-04-01T02:57:20;8.20;99.90
11152;DHT22;5630;49.342;10.802;2023-04-01T02:59:46;8.20;99.90
11152;DHT22;5630;49.342;10.802;2023-04-01T03:02:12;8.30;99.90
11152;DHT22;5630;49.342;10.802;2023-04-01T03:04:38;8.30;99.90
11152;DHT22;5630;49.342;10.802;2023-04-01T03:07:03;8.20;99.90
11152;DHT22;5630;49.342;10.802;2023-04-01T03:09:29;8.20;99.90
11152;DHT22;5630;49.342;10.802;2023-04-01T03:11:55;8.20;99.90
11152;DHT22;5630;49.342;10.802;2023-04-01T03:14:21;8.30;99.90
11152;DHT22;5630;49.342;10.802;2023-04-01T03:16:46;8.30;99.90
11152;DHT22;5630;49.342;10.802;2023-04-01T03:19:12;8.30;99.90
11152;DHT22;5630;49.342;10.802;2023-04-01T03:21:37;8.20;99.90
11152;DHT22;5630;49.342;10.802;2023-04-01T03:24:03;8.20;99.90
11152;DHT22;5630;49.342;10.802;2023-04-01T03:26:29;8.20;99.90
11152;DHT22;5630;49.342;10.802;2023-04-01T03:28:55;8.20;99.90
11152;DHT22;5630;49.342;10.802;2023-04-01T03:31:21;8.20;99.90
11152;DHT22;5630;49.342;10.802;2023-04-01T03:33:47;8.20;99.90
11152;DHT22;5630;49.342;10.802;2023-04-01T03:36:13;8.10;99.90
11152;DHT22;5630;49.342;10.802;2023-04-01T03:38:43;8.20;99.90
11152;DHT22;5630;49.342;10.802;2023-04-01T03:41:16;8.20;99.90
11152;DHT22;5630;49.342;10.802;2023-04-01T03:43:43;8.10;99.90
11152;DHT22;5630;49.342;10.802;2023-04-01T03:46:08;8.10;99.90
11152;DHT22;5630;49.342;10.802;2023-04-01T03:48:34;8.10;99.90
11152;DHT22;5630;49.342;10.802;2023-04-01T03:51:00;8.10;99.90
11152;DHT22;5630;49.342;10.802;2023-04-01T03:53:25;8.10;99.90
11152;DHT22;5630;49.342;10.802;2023-04-01T03:55:52;8.10;99.90
11152;DHT22;5630;49.342;10.802;2023-04-01T03:58:18;8.10;99.90
11152;DHT22;5630;49.342;10.802;2023-04-01T04:00:44;8.10;99.90
11152;DHT22;5630;49.342;10.802;2023-04-01T04:03:10;8.00;99.90
11152;DHT22;5630;49.342;10.802;2023-04-01T04:05:36;8.00;99.90
11152;DHT22;5630;49.342;10.802;2023-04-01T04:08:01;8.10;99.90
11152;DHT22;5630;49.342;10.802;2023-04-01T04:10:27;8.10;99.90
11152;DHT22;5630;49.342;10.802;2023-04-01T04:12:54;8.10;99.90
11152;DHT22;5630;49.342;10.802;2023-04-01T04:15:20;8.10;99.90
11152;DHT22;5630;49.342;10.802;2023-04-01T04:17:46;8.10;99.90
11152;DHT22;5630;49.342;10.802;2023-04-01T04:20:11;8.10;99.90
11152;DHT22;5630;49.342;10.802;2023-04-01T04:22:37;8.00;99.90
11152;DHT22;5630;49.342;10.802;2023-04-01T04:25:03;8.00;99.90
11152;DHT22;5630;49.342;10.802;2023-04-01T04:27:28;7.90;99.90
11152;DHT22;5630;49.342;10.802;2023-04-01T04:29:55;7.90;99.90
11152;DHT22;5630;49.342;10.802;2023-04-01T04:32:20;8.00;99.90
11152;DHT22;5630;49.342;10.802;2023-04-01T04:34:46;7.90;99.90
11152;DHT22;5630;49.342;10.802;2023-04-01T04:37:11;7.90;99.90
11152;DHT22;5630;49.342;10.802;2023-04-01T04:39:37;7.90;99.90
11152;DHT22;5630;49.342;10.802;2023-04-01T04:42:02;8.00;99.90
11152;DHT22;5630;49.342;10.802;2023-04-01T04:44:28;7.90;99.90
11152;DHT22;5630;49.342;10.802;2023-04-01T04:46:54;7.90;99.90
11152;DHT22;5630;49.342;10.802;2023-04-01T04:49:19;7.90;99.90
11152;DHT22;5630;49.342;10.802;2023-04-01T04:51:45;7.90;99.90
11152;DHT22;5630;49.342;10.802;2023-04-01T04:54:10;7.90;99.90
11152;DHT22;5630;49.342;10.802;2023-04-01T04:56:36;8.00;99.90
11152;DHT22;5630;49.342;10.802;2023-04-01T04:59:02;8.00;99.90
11152;DHT22;5630;49.342;10.802;2023-04-01T05:01:27;8.00;99.90
11152;DHT22;5630;49.342;10.802;2023-04-01T05:03:53;7.90;99.90
11152;DHT22;5630;49.342;10.802;2023-04-01T05:06:19;7.90;99.90
11152;DHT22;5630;49.342;10.802;2023-04-01T05:08:45;8.00;99.90
11152;DHT22;5630;49.342;10.802;2023-04-01T05:11:13;7.90;99.90
11152;DHT22;5630;49.342;10.802;2023-04-01T05:13:39;8.00;99.90
11152;DHT22;5630;49.342;10.802;2023-04-01T05:16:11;8.00;99.90
11152;DHT22;5630;49.342;10.802;2023-04-01T05:18:37;7.90;99.90
11152;DHT22;5630;49.342;10.802;2023-04-01T05:21:03;8.00;99.90
11152;DHT22;5630;49.342;10.802;2023-04-01T05:23:31;7.90;99.90
11152;DHT22;5630;49.342;10.802;2023-04-01T05:25:56;8.00;99.90
11152;DHT22;5630;49.342;10.802;2023-04-01T05:28:22;8.00;99.90
11152;DHT22;5630;49.342;10.802;2023-04-01T05:30:48;7.90;99.90
11152;DHT22;5630;49.342;10.802;2023-04-01T05:33:13;8.10;99.90
11152;DHT22;5630;49.342;10.802;2023-04-01T05:35:40;8.10;99.90
11152;DHT22;5630;49.342;10.802;2023-04-01T05:38:06;8.20;99.90
11152;DHT22;5630;49.342;10.802;2023-04-01T05:40:32;8.20;99.90
11152;DHT22;5630;49.342;10.802;2023-04-01T05:42:59;8.20;99.90
11152;DHT22;5630;49.342;10.802;2023-04-01T05:45:25;8.20;99.90
11152;DHT22;5630;49.342;10.802;2023-04-01T05:47:50;8.30;99.90
11152;DHT22;5630;49.342;10.802;2023-04-01T05:50:16;8.30;99.90
11152;DHT22;5630;49.342;10.802;2023-04-01T05:52:41;8.20;99.90
11152;DHT22;5630;49.342;10.802;2023-04-01T05:55:07;8.30;99.90
11152;DHT22;5630;49.342;10.802;2023-04-01T05:57:33;8.70;99.90
11152;DHT22;5630;49.342;10.802;2023-04-01T05:59:58;9.00;99.90
11152;DHT22;5630;49.342;10.802;2023-04-01T06:02:24;9.20;99.90
11152;DHT22;5630;49.342;10.802;2023-04-01T06:05:03;9.10;99.90
11152;DHT22;5630;49.342;10.802;2023-04-01T06:07:36;9.40;99.90
11152;DHT22;5630;49.342;10.802;2023-04-01T06:10:05;9.10;99.90
11152;DHT22;5630;49.342;10.802;2023-04-01T06:13:06;8.80;99.90
11152;DHT22;5630;49.342;10.802;2023-04-01T06:46:23;8.70;99.90
11152;DHT22;5630;49.342;10.802;2023-04-01T06:54:38;8.80;99.90
11152;DHT22;5630;49.342;10.802;2023-04-01T06:59:49;9.00;99.90
11152;DHT22;5630;49.342;10.802;2023-04-01T07:02:32;9.10;99.90
11152;DHT22;5630;49.342;10.802;2023-04-01T07:05:00;9.10;99.90
11152;DHT22;5630;49.342;10.802;2023-04-01T07:07:33;9.10;99.90
11152;DHT22;5630;49.342;10.802;2023-04-01T07:10:04;9.20;99.90
11152;DHT22;5630;49.342;10.802;2023-04-01T07:14:58;9.30;99.90
11152;DHT22;5630;49.342;10.802;2023-04-01T07:17:31;9.30;99.90
11152;DHT22;5630;49.342;10.802;2023-04-01T07:20:02;9.40;99.90
11152;DHT22;5630;49.342;10.802;2023-04-01T07:22:48;9.50;99.90
11152;DHT22;5630;49.342;10.802;2023-04-01T07:25:24;9.60;99.90
11152;DHT22;5630;49.342;10.802;2023-04-01T07:27:53;9.60;99.90
11152;DHT22;5630;49.342;10.802;2023-04-01T07:30:21;9.50;99.90
11152;DHT22;5630;49.342;10.802;2023-04-01T07:35:43;9.40;99.90
11152;DHT22;5630;49.342;10.802;2023-04-01T07:38:18;9.50;99.90
11152;DHT22;5630;49.342;10.802;2023-04-01T07:49:28;9.80;99.90
11152;DHT22;5630;49.342;10.802;2023-04-01T07:54:58;9.90;99.90
11152;DHT22;5630;49.342;10.802;2023-04-01T07:57:41;10.00;99.90
11152;DHT22;5630;49.342;10.802;2023-04-01T08:11:12;10.30;99.90
11152;DHT22;5630;49.342;10.802;2023-04-01T08:14:04;10.30;99.90
11152;DHT22;5630;49.342;10.802;2023-04-01T08:16:58;10.20;99.90
11152;DHT22;5630;49.342;10.802;2023-04-01T08:19:41;10.20;99.90
11152;DHT22;5630;49.342;10.802;2023-04-01T08:22:14;10.00;99.90
11152;DHT22;5630;49.342;10.802;2023-04-01T08:24:45;10.00;99.90
11152;DHT22;5630;49.342;10.802;2023-04-01T08:27:39;10.00;99.90
11152;DHT22;5630;49.342;10.802;2023-04-01T08:30:21;10.00;99.90
11152;DHT22;5630;49.342;10.802;2023-04-01T08:32:58;10.00;99.90
11152;DHT22;5630;49.342;10.802;2023-04-01T08:35:37;10.00;99.90
11152;DHT22;5630;49.342;10.802;2023-04-01T08:38:11;9.90;99.90
11152;DHT22;5630;49.342;10.802;2023-04-01T08:43:54;10.00;99.90
11152;DHT22;5630;49.342;10.802;2023-04-01T08:52:31;10.00;99.90
11152;DHT22;5630;49.342;10.802;2023-04-01T09:00:43;10.00;99.90
11152;DHT22;5630;49.342;10.802;2023-04-01T09:03:31;9.90;99.90
11152;DHT22;5630;49.342;10.802;2023-04-01T09:09:34;9.90;99.90
11152;DHT22;5630;49.342;10.802;2023-04-01T09:20:01;9.80;99.90
11152;DHT22;5630;49.342;10.802;2023-04-01T09:25:05;10.00;99.90
11152;DHT22;5630;49.342;10.802;2023-04-01T09:27:56;9.80;99.90
11152;DHT22;5630;49.342;10.802;2023-04-01T09:30:56;9.90;99.90
11152;DHT22;5630;49.342;10.802;2023-04-01T09:36:45;9.90;99.90
11152;DHT22;5630;49.342;10.802;2023-04-01T09:39:26;9.80;99.90
11152;DHT22;5630;49.342;10.802;2023-04-01T09:44:45;9.60;99.90
11152;DHT22;5630;49.342;10.802;2023-04-01T09:59:47;9.20;99.90
11152;DHT22;5630;49.342;10.802;2023-04-01T10:02:02;9.20;99.90
11152;DHT22;5630;49.342;10.802;2023-04-01T10:10:34;9.20;99.90
11152;DHT22;5630;49.342;10.802;2023-04-01T10:35:14;9.30;99.90
11152;DHT22;5630;49.342;10.802;2023-04-01T10:52:32;9.10;99.90
11152;DHT22;5630;49.342;10.802;2023-04-01T10:55:37;9.10;99.90
11152;DHT22;5630;49.342;10.802;2023-04-01T10:58:18;9.20;99.90
11152;DHT22;5630;49.342;10.802;2023-04-01T11:01:27;9.20;99.90
11152;DHT22;5630;49.342;10.802;2023-04-01T11:10:57;9.10;99.90
11152;DHT22;5630;49.342;10.802;2023-04-01T11:29:39;9.50;99.90
11152;DHT22;5630;49.342;10.802;2023-04-01T11:38:26;9.50;99.90
11152;DHT22;5630;49.342;10.802;2023-04-01T11:52:51;9.20;99.90
11152;DHT22;5630;49.342;10.802;2023-04-01T11:55:46;9.30;99.90
11152;DHT22;5630;49.342;10.802;2023-04-01T12:04:16;9.70;99.90
11152;DHT22;5630;49.342;10.802;2023-04-01T12:10:01;9.60;99.90
11152;DHT22;5630;49.342;10.802;2023-04-01T12:18:42;9.40;99.90
11152;DHT22;5630;49.342;10.802;2023-04-01T12:31:53;9.20;99.90
11152;DHT22;5630;49.342;10.802;2023-04-01T12:37:20;9.20;99.90
11152;DHT22;5630;49.342;10.802;2023-04-01T12:45:35;9.30;99.90
11152;DHT22;5630;49.342;10.802;2023-04-01T12:53:35;9.30;99.90
11152;DHT22;5630;49.342;10.802;2023-04-01T13:13:41;9.30;99.90
11152;DHT22;5630;49.342;10.802;2023-04-01T13:16:14;9.40;99.90
11152;DHT22;5630;49.342;10.802;2023-04-01T13:29:37;9.50;99.90
11152;DHT22;5630;49.342;10.802;2023-04-01T13:43:10;9.50;99.90
11152;DHT22;5630;49.342;10.802;2023-04-01T13:48:45;9.60;99.90
11152;DHT22;5630;49.342;10.802;2023-04-01T13:59:40;9.70;99.90
11152;DHT22;5630;49.342;10.802;2023-04-01T14:02:44;9.80;99.90
11152;DHT22;5630;49.342;10.802;2023-04-01T14:34:22;9.80;99.90
11152;DHT22;5630;49.342;10.802;2023-04-01T14:40:00;9.70;99.90
11152;DHT22;5630;49.342;10.802;2023-04-01T14:51:18;9.70;99.90
11152;DHT22;5630;49.342;10.802;2023-04-01T14:54:05;9.70;99.90
11152;DHT22;5630;49.342;10.802;2023-04-01T14:59:34;9.90;99.90
11152;DHT22;5630;49.342;10.802;2023-04-01T15:13:15;9.90;99.90
11152;DHT22;5630;49.342;10.802;2023-04-01T15:19:05;9.80;99.90
11152;DHT22;5630;49.342;10.802;2023-04-01T15:24:19;9.70;99.90
11152;DHT22;5630;49.342;10.802;2023-04-01T15:27:14;9.70;99.90
11152;DHT22;5630;49.342;10.802;2023-04-01T15:30:27;9.80;99.90
11152;DHT22;5630;49.342;10.802;2023-04-01T15:33:32;9.70;99.90
11152;DHT22;5630;49.342;10.802;2023-04-01T15:50:12;9.70;99.90
11152;DHT22;5630;49.342;10.802;2023-04-01T16:00:53;9.70;99.90
11152;DHT22;5630;49.342;10.802;2023-04-01T16:03:42;9.60;99.90
11152;DHT22;5630;49.342;10.802;2023-04-01T16:06:32;9.60;99.90
11152;DHT22;5630;49.342;10.802;2023-04-01T16:12:03;9.50;99.90
11152;DHT22;5630;49.342;10.802;2023-04-01T16:17:46;9.50;99.90
11152;DHT22;5630;49.342;10.802;2023-04-01T16:23:22;9.40;99.90
11152;DHT22;5630;49.342;10.802;2023-04-01T16:26:22;9.40;99.90
11152;DHT22;5630;49.342;10.802;2023-04-01T16:31:43;9.40;99.90
11152;DHT22;5630;49.342;10.802;2023-04-01T16:34:21;9.40;99.90
11152;DHT22;5630;49.342;10.802;2023-04-01T16:37:17;9.30;99.90
11152;DHT22;5630;49.342;10.802;2023-04-01T16:39:53;9.40;99.90
11152;DHT22;5630;49.342;10.802;2023-04-01T16:42:26;9.40;99.90
11152;DHT22;5630;49.342;10.802;2023-04-01T16:47:50;9.40;99.90
11152;DHT22;5630;49.342;10.802;2023-04-01T16:50:26;9.30;99.90
11152;DHT22;5630;49.342;10.802;2023-04-01T16:53:08;9.30;99.90
11152;DHT22;5630;49.342;10.802;2023-04-01T16:58:02;9.20;99.90
11152;DHT22;5630;49.342;10.802;2023-04-01T17:00:38;9.20;99.90
11152;DHT22;5630;49.342;10.802;2023-04-01T17:11:19;9.20;99.90
11152;DHT22;5630;49.342;10.802;2023-04-01T17:28:17;9.10;99.90
11152;DHT22;5630;49.342;10.802;2023-04-01T17:31:03;9.10;99.90
11152;DHT22;5630;49.342;10.802;2023-04-01T17:34:01;9.00;99.90
11152;DHT22;5630;49.342;10.802;2023-04-01T17:39:25;9.10;99.90
11152;DHT22;5630;49.342;10.802;2023-04-01T17:44:51;9.20;99.90
11152;DHT22;5630;49.342;10.802;2023-04-01T17:52:42;9.10;99.90
11152;DHT22;5630;49.342;10.802;2023-04-01T17:58:34;9.00;99.90
11152;DHT22;5630;49.342;10.802;2023-04-01T18:01:21;9.00;99.90
11152;DHT22;5630;49.342;10.802;2023-04-01T18:12:32;9.00;99.90
11152;DHT22;5630;49.342;10.802;2023-04-01T18:20:34;8.90;99.90
11152;DHT22;5630;49.342;10.802;2023-04-01T18:23:27;8.90;99.90
11152;DHT22;5630;49.342;10.802;2023-04-01T18:26:04;8.90;99.90
11152;DHT22;5630;49.342;10.802;2023-04-01T18:33:34;8.90;99.90
11152;DHT22;5630;49.342;10.802;2023-04-01T18:38:50;9.00;99.90
11152;DHT22;5630;49.342;10.802;2023-04-01T18:44:28;9.00;99.90
11152;DHT22;5630;49.342;10.802;2023-04-01T18:47:05;8.90;99.90
11152;DHT22;5630;49.342;10.802;2023-04-01T18:52:42;9.00;99.90
11152;DHT22;5630;49.342;10.802;2023-04-01T18:55:34;9.00;99.90
11152;DHT22;5630;49.342;10.802;2023-04-01T18:58:27;9.00;99.90
11152;DHT22;5630;49.342;10.802;2023-04-01T19:04:15;9.00;99.90
11152;DHT22;5630;49.342;10.802;2023-04-01T19:06:55;8.90;99.90
11152;DHT22;5630;49.342;10.802;2023-04-01T19:12:29;9.00;99.90
11152;DHT22;5630;49.342;10.802;2023-04-01T19:15:30;9.00;99.90
11152;DHT22;5630;49.342;10.802;2023-04-01T19:18:22;8.90;99.90
11152;DHT22;5630;49.342;10.802;2023-04-01T19:20:56;8.90;99.90
11152;DHT22;5630;49.342;10.802;2023-04-01T19:26:20;8.90;99.90
11152;DHT22;5630;49.342;10.802;2023-04-01T19:28:56;8.90;99.90
11152;DHT22;5630;49.342;10.802;2023-04-01T19:31:35;8.90;99.90
11152;DHT22;5630;49.342;10.802;2023-04-01T19:34:26;8.90;99.90
11152;DHT22;5630;49.342;10.802;2023-04-01T19:36:59;8.90;99.90
11152;DHT22;5630;49.342;10.802;2023-04-01T19:42:32;8.80;99.90
11152;DHT22;5630;49.342;10.802;2023-04-01T19:45:26;8.80;99.90
11152;DHT22;5630;49.342;10.802;2023-04-01T19:50:59;8.80;99.90
11152;DHT22;5630;49.342;10.802;2023-04-01T19:53:58;8.80;99.90
11152;DHT22;5630;49.342;10.802;2023-04-01T19:56:24;8.80;99.90
11152;DHT22;5630;49.342;10.802;2023-04-01T20:01:48;8.90;99.90
11152;DHT22;5630;49.342;10.802;2023-04-01T20:04:31;8.80;99.90
11152;DHT22;5630;49.342;10.802;2023-04-01T20:07:27;8.90;99.90
11152;DHT22;5630;49.342;10.802;2023-04-01T20:13:19;8.90;99.90
11152;DHT22;5630;49.342;10.802;2023-04-01T20:16:06;8.80;99.90
11152;DHT22;5630;49.342;10.802;2023-04-01T20:24:17;8.70;99.90
11152;DHT22;5630;49.342;10.802;2023-04-01T20:26:50;8.70;99.90
11152;DHT22;5630;49.342;10.802;2023-04-01T20:32:23;8.80;99.90
11152;DHT22;5630;49.342;10.802;2023-04-01T20:37:46;8.70;99.90
11152;DHT22;5630;49.342;10.802;2023-04-01T20:40:36;8.80;99.90
11152;DHT22;5630;49.342;10.802;2023-04-01T20:43:16;8.80;99.90
11152;DHT22;5630;49.342;10.802;2023-04-01T20:46:38;8.80;99.90
11152;DHT22;5630;49.342;10.802;2023-04-01T20:55:02;8.80;99.90
11152;DHT22;5630;49.342;10.802;2023-04-01T20:57:49;8.70;99.90
11152;DHT22;5630;49.342;10.802;2023-04-01T21:03:43;8.70;99.90
11152;DHT22;5630;49.342;10.802;2023-04-01T21:14:44;8.60;99.90
11152;DHT22;5630;49.342;10.802;2023-04-01T21:17:34;8.60;99.90
11152;DHT22;5630;49.342;10.802;2023-04-01T21:23:44;8.60;99.90
11152;DHT22;5630;49.342;10.802;2023-04-01T21:32:04;8.60;99.90
11152;DHT22;5630;49.342;10.802;2023-04-01T21:35:06;8.60;99.90
11152;DHT22;5630;49.342;10.802;2023-04-01T21:54:22;8.50;99.90
11152;DHT22;5630;49.342;10.802;2023-04-01T22:02:43;8.50;99.90
11152;DHT22;5630;49.342;10.802;2023-04-01T22:05:22;8.50;99.90
11152;DHT22;5630;49.342;10.802;2023-04-01T22:11:04;8.60;99.90
11152;DHT22;5630;49.342;10.802;2023-04-01T22:14:02;8.60;99.90
11152;DHT22;5630;49.342;10.802;2023-04-01T22:16:50;8.50;99.90
11152;DHT22;5630;49.342;10.802;2023-04-01T22:19:42;8.60;99.90
11152;DHT22;5630;49.342;10.802;2023-04-01T22:25:25;8.50;99.90
11152;DHT22;5630;49.342;10.802;2023-04-01T22:30:58;8.60;99.90
11152;DHT22;5630;49.342;10.802;2023-04-01T22:41:59;8.50;99.90
11152;DHT22;5630;49.342;10.802;2023-04-01T22:52:43;8.50;99.90
11152;DHT22;5630;49.342;10.802;2023-04-01T22:55:21;8.50;99.90
11152;DHT22;5630;49.342;10.802;2023-04-01T22:58:00;8.50;99.90
11152;DHT22;5630;49.342;10.802;2023-04-01T23:00:32;8.60;99.90
11152;DHT22;5630;49.342;10.802;2023-04-01T23:05:50;8.40;99.90
11152;DHT22;5630;49.342;10.802;2023-04-01T23:16:57;8.50;99.90
11152;DHT22;5630;49.342;10.802;2023-04-01T23:22:12;8.40;99.90
11152;DHT22;5630;49.342;10.802;2023-04-01T23:24:51;8.40;99.90
11152;DHT22;5630;49.342;10.802;2023-04-01T23:27:33;8.40;99.90
11152;DHT22;5630;49.342;10.802;2023-04-01T23:30:03;8.40;99.90
11152;DHT22;5630;49.342;10.802;2023-04-01T23:32:28;8.40;99.90
11152;DHT22;5630;49.342;10.802;2023-04-01T23:34:57;8.40;99.90
11152;DHT22;5630;49.342;10.802;2023-04-01T23:37:24;8.40;99.90
11152;DHT22;5630;49.342;10.802;2023-04-01T23:39:55;8.30;99.90
11152;DHT22;5630;49.342;10.802;2023-04-01T23:42:31;8.30;99.90
11152;DHT22;5630;49.342;10.802;2023-04-01T23:45:03;8.30;99.90
11152;DHT22;5630;49.342;10.802;2023-04-01T23:47:38;8.40;99.90
11152;DHT22;5630;49.342;10.802;2023-04-01T23:50:16;8.40;99.90
11152;DHT22;5630;49.342;10.802;2023-04-01T23:52:47;8.30;99.90
11152;DHT22;5630;49.342;10.802;2023-04-01T23:55:24;8.40;99.90
